Time;durP1;ratioP1;P1;durP2;ratioP2;P2;SDS_P1;SDS_P2;PMS_P1;PMS_P2;Temp;Humidity;BMP_temperature;BMP_pressure;BME280_temperature;BME280_humidity;BME280_pressure;Samples;Min_cycle;Max_cycle;Signal;HPM_P1;HPM_P2
2023/02/13 00:00:18;;;;;;;14.00;12.60;;;;;;;;;;516654;28;1432;-69
2023/02/13 00:00:33;;;;;;;14.10;12.70;;;;;;;;;;521548;28;2098;-69
2023/02/13 00:00:49;;;;;;;13.80;12.43;;;;;;;;;;518608;28;1342;-68
2023/02/13 00:01:05;;;;;;;13.90;12.50;;;;;;;;;;519254;28;1352;-68
2023/02/13 00:01:20;;;;;;;14.07;12.68;;;;;;;;;;518735;28;1390;-68
2023/02/13 00:01:36;;;;;;;14.17;12.77;;;;;;;;;;519778;28;1339;-68
2023/02/13 00:01:51;;;;;;;14.13;12.70;;;;;;;;;;515495;28;1331;-68
2023/02/13 00:02:07;;;;;;;13.53;12.13;;;;;;;;;;516330;28;1617;-68
2023/02/13 00:02:22;;;;;;;13.60;12.20;;;;;;;;;;516458;28;1725;-68
2023/02/13 00:02:37;;;;;;;14.10;12.70;;;;;;;;;;512313;28;1226;-68
2023/02/13 00:02:53;;;;;;;14.13;12.70;;;;;;;;;;515645;28;1429;-68
2023/02/13 00:03:08;;;;;;;13.50;12.10;;;;;;;;;;514643;28;1389;-68
2023/02/13 00:03:23;;;;;;;13.63;12.23;;;;;;;;;;515679;28;1473;-68
2023/02/13 00:03:39;;;;;;;13.98;12.55;;;;;;;;;;514055;28;1292;-68
2023/02/13 00:03:54;;;;;;;13.83;12.43;;;;;;;;;;512236;28;1797;-68
2023/02/13 00:04:10;;;;;;;14.20;12.70;;;;;;;;;;513671;28;1474;-68
2023/02/13 00:04:25;;;;;;;14.32;12.82;;;;;;;;;;513749;28;1358;-69
2023/02/13 00:04:43;;;;;;;14.00;12.50;;;;;;;;;;514835;28;1366;-68
2023/02/13 00:04:58;;;;;;;14.15;12.65;;;;;;;;;;513653;28;1359;-68
2023/02/13 00:05:14;;;;;;;14.07;12.63;;;;;;;;;;515006;28;1657;-67
2023/02/13 00:05:29;;;;;;;13.67;12.27;;;;;;;;;;518011;28;2088;-68
2023/02/13 00:05:45;;;;;;;13.43;12.02;;;;;;;;;;518192;28;1404;-68
2023/02/13 00:06:00;;;;;;;13.80;12.40;;;;;;;;;;518051;28;1400;-68
2023/02/13 00:06:15;;;;;;;13.90;12.50;;;;;;;;;;516886;28;1365;-68
2023/02/13 00:06:30;;;;;;;13.57;12.25;;;;;;;;;;516922;28;1272;-68
2023/02/13 00:06:49;;;;;;;13.90;12.50;;;;;;;;;;516524;28;1350;-68
2023/02/13 00:07:04;;;;;;;13.80;12.38;;;;;;;;;;517091;28;1900;-68
2023/02/13 00:07:19;;;;;;;13.52;12.13;;;;;;;;;;518426;28;1372;-68
2023/02/13 00:07:35;;;;;;;13.60;12.20;;;;;;;;;;517014;28;1199;-68
2023/02/13 00:07:50;;;;;;;13.33;12.00;;;;;;;;;;518443;28;1240;-68
2023/02/13 00:08:05;;;;;;;13.75;12.35;;;;;;;;;;517879;28;1485;-68
2023/02/13 00:08:21;;;;;;;14.00;12.60;;;;;;;;;;518852;28;1270;-68
2023/02/13 00:08:36;;;;;;;13.60;12.30;;;;;;;;;;520093;28;1652;-68
2023/02/13 00:08:52;;;;;;;13.53;12.20;;;;;;;;;;522341;28;1374;-68
2023/02/13 00:09:09;;;;;;;13.57;12.17;;;;;;;;;;516367;28;1277;-68
2023/02/13 00:09:25;;;;;;;13.85;12.45;;;;;;;;;;520117;28;1206;-68
2023/02/13 00:09:42;;;;;;;13.43;12.13;;;;;;;;;;519350;28;1382;-68
2023/02/13 00:09:58;;;;;;;13.25;11.95;;;;;;;;;;517878;28;1291;-68
2023/02/13 00:10:13;;;;;;;13.33;12.03;;;;;;;;;;518660;28;1635;-69
2023/02/13 00:10:29;;;;;;;13.60;12.20;;;;;;;;;;516908;28;1358;-68
2023/02/13 00:10:44;;;;;;;13.73;12.33;;;;;;;;;;515525;28;1363;-68
2023/02/13 00:10:59;;;;;;;13.87;12.50;;;;;;;;;;515936;28;1198;-68
2023/02/13 00:11:15;;;;;;;13.98;12.57;;;;;;;;;;517329;28;1243;-68
2023/02/13 00:11:30;;;;;;;13.50;12.20;;;;;;;;;;516375;28;1299;-68
2023/02/13 00:11:45;;;;;;;13.48;12.18;;;;;;;;;;515732;28;1785;-68
2023/02/13 00:12:01;;;;;;;13.70;12.30;;;;;;;;;;519782;28;1705;-68
2023/02/13 00:12:16;;;;;;;13.53;12.13;;;;;;;;;;519222;28;1958;-68
2023/02/13 00:12:31;;;;;;;13.45;12.05;;;;;;;;;;518480;28;1230;-68
2023/02/13 00:12:47;;;;;;;13.67;12.27;;;;;;;;;;517633;28;1235;-68
2023/02/13 00:13:02;;;;;;;13.47;12.17;;;;;;;;;;515078;28;1231;-68
2023/02/13 00:13:17;;;;;;;13.57;12.18;;;;;;;;;;517152;28;1904;-68
2023/02/13 00:13:34;;;;;;;13.67;12.27;;;;;;;;;;517855;28;1282;-68
2023/02/13 00:13:49;;;;;;;13.77;12.38;;;;;;;;;;519684;28;1283;-68
2023/02/13 00:14:05;;;;;;;13.73;12.33;;;;;;;;;;519555;28;1240;-68
2023/02/13 00:14:20;;;;;;;13.97;12.47;;;;;;;;;;515368;28;1232;-69
2023/02/13 00:14:37;;;;;;;13.48;12.07;;;;;;;;;;515686;28;1408;-68
2023/02/13 00:14:53;;;;;;;13.30;12.00;;;;;;;;;;515505;28;1399;-68
2023/02/13 00:15:08;;;;;;;13.30;12.00;;;;;;;;;;512350;28;1354;-68
2023/02/13 00:15:24;;;;;;;13.20;11.90;;;;;;;;;;513804;28;1542;-68
2023/02/13 00:15:39;;;;;;;13.77;12.30;;;;;;;;;;515181;28;1304;-68
2023/02/13 00:15:59;;;;;;;14.00;12.50;;;;;;;;;;517250;28;1177;-68
2023/02/13 00:16:14;;;;;;;13.60;12.20;;;;;;;;;;519244;28;1220;-68
2023/02/13 00:16:29;;;;;;;13.23;11.93;;;;;;;;;;518167;28;1184;-69
2023/02/13 00:16:45;;;;;;;13.37;12.03;;;;;;;;;;519488;28;1299;-68
2023/02/13 00:17:01;;;;;;;13.60;12.20;;;;;;;;;;519454;28;1253;-68
2023/02/13 00:17:16;;;;;;;13.30;12.00;;;;;;;;;;518742;28;1206;-68
2023/02/13 00:17:32;;;;;;;13.70;12.30;;;;;;;;;;520215;28;1192;-68
2023/02/13 00:17:47;;;;;;;14.00;12.60;;;;;;;;;;514727;28;1358;-68
2023/02/13 00:18:02;;;;;;;13.40;12.07;;;;;;;;;;514749;28;1334;-68
2023/02/13 00:18:18;;;;;;;13.13;11.83;;;;;;;;;;516984;28;1566;-68
2023/02/13 00:18:35;;;;;;;13.35;12.00;;;;;;;;;;519488;28;1283;-68
2023/02/13 00:18:50;;;;;;;13.65;12.32;;;;;;;;;;518130;28;1305;-68
2023/02/13 00:19:06;;;;;;;13.53;12.23;;;;;;;;;;516507;28;1233;-68
2023/02/13 00:19:21;;;;;;;13.35;12.05;;;;;;;;;;518940;28;1448;-68
2023/02/13 00:19:36;;;;;;;13.53;12.20;;;;;;;;;;523560;28;1199;-68
2023/02/13 00:19:52;;;;;;;13.87;12.47;;;;;;;;;;520692;28;1429;-68
2023/02/13 00:20:09;;;;;;;13.40;12.00;;;;;;;;;;521787;28;1050;-68
2023/02/13 00:20:24;;;;;;;12.52;11.32;;;;;;;;;;520207;28;1347;-68
2023/02/13 00:20:40;;;;;;;12.53;11.33;;;;;;;;;;519567;28;1212;-68
2023/02/13 00:21:04;;;;;;;12.85;11.52;;;;;;;;;;517513;28;1330;-68
2023/02/13 00:21:19;;;;;;;13.32;11.93;;;;;;;;;;518480;28;1253;-68
2023/02/13 00:21:34;;;;;;;13.37;12.07;;;;;;;;;;517617;28;1215;-68
2023/02/13 00:21:50;;;;;;;13.40;12.00;;;;;;;;;;517151;28;1149;-68
2023/02/13 00:22:05;;;;;;;13.07;11.73;;;;;;;;;;517554;28;1393;-68
2023/02/13 00:22:20;;;;;;;12.87;11.57;;;;;;;;;;516231;28;1294;-68
2023/02/13 00:22:37;;;;;;;13.27;11.88;;;;;;;;;;515659;28;1187;-68
2023/02/13 00:22:52;;;;;;;13.40;12.00;;;;;;;;;;517043;28;1243;-67
2023/02/13 00:23:07;;;;;;;13.13;11.73;;;;;;;;;;519386;28;1172;-68
2023/02/13 00:23:23;;;;;;;13.43;12.03;;;;;;;;;;518994;28;1411;-68
2023/02/13 00:23:39;;;;;;;13.73;12.33;;;;;;;;;;518586;28;1430;-67
2023/02/13 00:23:54;;;;;;;13.43;12.02;;;;;;;;;;516370;28;1319;-68
2023/02/13 00:24:09;;;;;;;13.50;12.10;;;;;;;;;;517689;28;1505;-68
2023/02/13 00:24:25;;;;;;;13.63;12.23;;;;;;;;;;520048;28;1180;-69
2023/02/13 00:24:40;;;;;;;13.33;11.93;;;;;;;;;;519036;28;1284;-68
2023/02/13 00:24:55;;;;;;;13.17;11.87;;;;;;;;;;519240;28;1399;-69
2023/02/13 00:25:11;;;;;;;13.30;12.00;;;;;;;;;;519354;28;1289;-68
2023/02/13 00:25:26;;;;;;;13.27;11.97;;;;;;;;;;517283;28;1256;-68
2023/02/13 00:25:42;;;;;;;13.05;11.75;;;;;;;;;;520074;28;1305;-68
2023/02/13 00:25:58;;;;;;;13.00;11.70;;;;;;;;;;521537;28;1249;-68
2023/02/13 00:26:15;;;;;;;13.27;11.90;;;;;;;;;;518499;28;1354;-68
2023/02/13 00:26:30;;;;;;;13.35;11.98;;;;;;;;;;519508;28;1126;-68
2023/02/13 00:26:45;;;;;;;13.23;11.77;;;;;;;;;;516717;28;1196;-68
2023/02/13 00:27:01;;;;;;;13.45;11.93;;;;;;;;;;521994;28;1354;-69
2023/02/13 00:27:16;;;;;;;13.57;12.17;;;;;;;;;;518771;28;1336;-68
2023/02/13 00:27:32;;;;;;;13.83;12.33;;;;;;;;;;517464;28;1484;-68
2023/02/13 00:27:49;;;;;;;14.30;12.80;;;;;;;;;;520499;28;1580;-69
2023/02/13 00:28:05;;;;;;;14.35;12.85;;;;;;;;;;518570;28;1131;-68
2023/02/13 00:28:20;;;;;;;13.93;12.53;;;;;;;;;;519277;28;1317;-68
2023/02/13 00:28:35;;;;;;;13.93;12.53;;;;;;;;;;518081;28;1237;-68
2023/02/13 00:28:51;;;;;;;13.80;12.40;;;;;;;;;;517247;28;1151;-68
2023/02/13 00:29:06;;;;;;;14.03;12.63;;;;;;;;;;517916;28;1221;-68
2023/02/13 00:29:21;;;;;;;14.20;12.77;;;;;;;;;;520204;28;1293;-68
2023/02/13 00:29:36;;;;;;;14.18;12.73;;;;;;;;;;521045;28;1376;-68
2023/02/13 00:29:52;;;;;;;13.93;12.53;;;;;;;;;;522867;28;1181;-68
2023/02/13 00:30:08;;;;;;;13.87;12.40;;;;;;;;;;519461;28;1265;-68
2023/02/13 00:30:23;;;;;;;13.85;12.40;;;;;;;;;;521086;28;1689;-68
2023/02/13 00:30:38;;;;;;;13.90;12.50;;;;;;;;;;516915;28;1197;-68
2023/02/13 00:30:53;;;;;;;13.63;12.23;;;;;;;;;;519788;28;1188;-68
2023/02/13 00:31:12;;;;;;;13.10;11.77;;;;;;;;;;518447;28;1347;-68
2023/02/13 00:31:27;;;;;;;13.63;12.18;;;;;;;;;;514524;28;1514;-68
2023/02/13 00:31:43;;;;;;;13.97;12.47;;;;;;;;;;515825;28;1435;-69
2023/02/13 00:32:00;;;;;;;13.47;12.07;;;;;;;;;;517038;28;1088;-68
2023/02/13 00:32:15;;;;;;;13.70;12.30;;;;;;;;;;516994;28;1989;-68
2023/02/13 00:32:30;;;;;;;13.25;11.95;;;;;;;;;;517058;28;1312;-68
2023/02/13 00:32:46;;;;;;;13.53;12.20;;;;;;;;;;516506;28;1279;-69
2023/02/13 00:33:01;;;;;;;13.90;12.50;;;;;;;;;;516342;28;1166;-68
2023/02/13 00:33:16;;;;;;;13.23;11.93;;;;;;;;;;518651;28;1607;-68
2023/02/13 00:33:32;;;;;;;13.20;11.90;;;;;;;;;;518865;28;1428;-68
2023/02/13 00:33:47;;;;;;;13.50;12.10;;;;;;;;;;521463;28;1443;-68
2023/02/13 00:34:03;;;;;;;13.52;12.13;;;;;;;;;;519498;28;1413;-69
2023/02/13 00:34:18;;;;;;;13.32;12.02;;;;;;;;;;519712;28;1051;-69
2023/02/13 00:34:34;;;;;;;13.20;11.90;;;;;;;;;;514860;28;1349;-68
2023/02/13 00:34:49;;;;;;;13.37;11.97;;;;;;;;;;515635;28;1183;-69
2023/02/13 00:35:04;;;;;;;13.40;12.00;;;;;;;;;;517635;28;1357;-68
2023/02/13 00:35:20;;;;;;;13.43;12.03;;;;;;;;;;513701;28;1311;-68
2023/02/13 00:35:35;;;;;;;13.63;12.20;;;;;;;;;;512326;28;1344;-69
2023/02/13 00:35:50;;;;;;;14.00;12.43;;;;;;;;;;517357;28;1160;-69
2023/02/13 00:36:20;;;;;;;13.43;12.03;;;;;;;;;;518044;28;1245;-69
2023/02/13 00:36:35;;;;;;;13.32;12.00;;;;;;;;;;519722;28;1185;-69
2023/02/13 00:36:50;;;;;;;13.07;11.77;;;;;;;;;;517549;28;1713;-68
2023/02/13 00:37:05;;;;;;;13.03;11.73;;;;;;;;;;518280;28;1405;-68
2023/02/13 00:37:21;;;;;;;13.47;12.17;;;;;;;;;;518167;28;1298;-69
2023/02/13 00:37:36;;;;;;;13.38;12.07;;;;;;;;;;518341;28;1469;-69
2023/02/13 00:37:51;;;;;;;13.20;11.90;;;;;;;;;;517211;28;1482;-69
2023/02/13 00:38:07;;;;;;;13.83;12.43;;;;;;;;;;519471;28;1187;-68
2023/02/13 00:38:22;;;;;;;13.90;12.48;;;;;;;;;;516979;28;1428;-68
2023/02/13 00:38:39;;;;;;;13.73;12.33;;;;;;;;;;518816;28;1319;-68
2023/02/13 00:38:54;;;;;;;14.13;12.63;;;;;;;;;;517360;28;1232;-69
2023/02/13 00:39:11;;;;;;;14.23;12.70;;;;;;;;;;518160;28;1284;-68
2023/02/13 00:39:26;;;;;;;13.60;12.18;;;;;;;;;;516259;28;1394;-69
2023/02/13 00:39:41;;;;;;;13.23;11.93;;;;;;;;;;516961;28;1345;-69
2023/02/13 00:39:57;;;;;;;13.80;12.30;;;;;;;;;;513555;28;1247;-69
2023/02/13 00:40:12;;;;;;;14.35;12.50;;;;;;;;;;515896;28;1304;-69
2023/02/13 00:40:28;;;;;;;13.87;12.43;;;;;;;;;;516193;28;1099;-69
2023/02/13 00:40:43;;;;;;;13.90;12.43;;;;;;;;;;516890;28;1495;-69
2023/02/13 00:40:58;;;;;;;13.80;12.07;;;;;;;;;;518626;28;1282;-69
2023/02/13 00:41:16;;;;;;;13.73;12.17;;;;;;;;;;517753;28;1376;-69
2023/02/13 00:41:31;;;;;;;13.77;12.27;;;;;;;;;;519990;28;1127;-69
2023/02/13 00:41:47;;;;;;;13.52;12.07;;;;;;;;;;520393;28;1509;-68
2023/02/13 00:42:02;;;;;;;13.20;11.90;;;;;;;;;;518847;28;1245;-69
2023/02/13 00:42:17;;;;;;;13.00;11.70;;;;;;;;;;521266;28;1263;-69
2023/02/13 00:42:33;;;;;;;13.43;12.02;;;;;;;;;;519562;28;1246;-68
2023/02/13 00:42:48;;;;;;;13.73;12.33;;;;;;;;;;518787;28;1278;-69
2023/02/13 00:43:03;;;;;;;13.17;11.87;;;;;;;;;;517727;28;1609;-69
2023/02/13 00:43:19;;;;;;;13.00;11.73;;;;;;;;;;519354;28;1236;-69
2023/02/13 00:43:34;;;;;;;13.47;12.07;;;;;;;;;;518529;28;1270;-69
2023/02/13 00:43:49;;;;;;;13.40;12.00;;;;;;;;;;520112;28;1147;-68
2023/02/13 00:44:05;;;;;;;13.10;11.80;;;;;;;;;;519654;28;1398;-68
2023/02/13 00:44:23;;;;;;;13.00;11.70;;;;;;;;;;518581;28;1229;-68
2023/02/13 00:44:38;;;;;;;12.70;11.40;;;;;;;;;;519795;28;1412;-69
2023/02/13 00:44:54;;;;;;;12.93;11.63;;;;;;;;;;517065;28;1442;-69
2023/02/13 00:45:10;;;;;;;13.10;11.80;;;;;;;;;;517848;28;1252;-68
2023/02/13 00:45:25;;;;;;;12.93;11.63;;;;;;;;;;519449;28;1345;-68
2023/02/13 00:45:41;;;;;;;12.67;11.37;;;;;;;;;;514907;28;1291;-68
2023/02/13 00:45:57;;;;;;;12.80;11.50;;;;;;;;;;513660;28;1303;-69
2023/02/13 00:46:13;;;;;;;13.50;12.15;;;;;;;;;;515310;28;1099;-69
2023/02/13 00:46:28;;;;;;;13.70;12.30;;;;;;;;;;516209;28;1215;-69
2023/02/13 00:46:44;;;;;;;13.10;11.80;;;;;;;;;;516375;28;1188;-69
2023/02/13 00:46:59;;;;;;;12.50;11.30;;;;;;;;;;517628;28;1323;-69
2023/02/13 00:47:14;;;;;;;12.60;11.30;;;;;;;;;;515304;28;1199;-69
2023/02/13 00:47:32;;;;;;;13.10;11.80;;;;;;;;;;515723;28;1226;-68
2023/02/13 00:47:48;;;;;;;13.00;11.70;;;;;;;;;;516033;28;1155;-68
2023/02/13 00:48:03;;;;;;;12.63;11.37;;;;;;;;;;516347;28;1291;-69
2023/02/13 00:48:18;;;;;;;12.70;11.40;;;;;;;;;;519534;28;1308;-69
2023/02/13 00:48:34;;;;;;;13.10;11.80;;;;;;;;;;517540;28;1523;-69
2023/02/13 00:48:50;;;;;;;12.65;11.40;;;;;;;;;;517055;28;1501;-69
2023/02/13 00:49:05;;;;;;;12.75;11.45;;;;;;;;;;517680;28;1375;-70
2023/02/13 00:49:21;;;;;;;13.23;11.90;;;;;;;;;;517149;28;1376;-69
2023/02/13 00:49:36;;;;;;;13.15;11.82;;;;;;;;;;517162;28;1345;-70
2023/02/13 00:49:52;;;;;;;12.80;11.60;;;;;;;;;;517602;28;1396;-69
2023/02/13 00:50:07;;;;;;;12.70;11.50;;;;;;;;;;517710;28;1472;-69
2023/02/13 00:50:22;;;;;;;13.20;11.90;;;;;;;;;;518269;28;1299;-69
2023/02/13 00:50:38;;;;;;;12.90;11.67;;;;;;;;;;516808;28;1236;-69
2023/02/13 00:50:53;;;;;;;12.63;11.43;;;;;;;;;;520376;28;1282;-69
2023/02/13 00:51:09;;;;;;;13.05;11.75;;;;;;;;;;518880;28;1350;-69
2023/02/13 00:51:25;;;;;;;12.98;11.68;;;;;;;;;;519290;28;1430;-69
2023/02/13 00:51:40;;;;;;;13.03;11.73;;;;;;;;;;519659;28;1384;-69
2023/02/13 00:51:58;;;;;;;13.07;11.77;;;;;;;;;;520931;28;1212;-67
2023/02/13 00:52:13;;;;;;;12.95;11.65;;;;;;;;;;515891;28;1965;-67
2023/02/13 00:52:29;;;;;;;12.83;11.53;;;;;;;;;;519365;28;1240;-67
2023/02/13 00:52:44;;;;;;;13.00;11.70;;;;;;;;;;521684;28;1367;-67
2023/02/13 00:52:59;;;;;;;13.13;11.82;;;;;;;;;;518575;28;1333;-67
2023/02/13 00:53:14;;;;;;;13.10;11.80;;;;;;;;;;518747;28;1357;-67
2023/02/13 00:53:31;;;;;;;13.30;11.90;;;;;;;;;;517995;28;1353;-67
2023/02/13 00:53:46;;;;;;;13.27;11.98;;;;;;;;;;516684;28;1107;-66
2023/02/13 00:54:01;;;;;;;13.13;11.82;;;;;;;;;;518709;28;1212;-67
2023/02/13 00:54:17;;;;;;;13.00;11.70;;;;;;;;;;518249;28;1190;-67
2023/02/13 00:54:32;;;;;;;12.83;11.60;;;;;;;;;;518568;28;1207;-66
2023/02/13 00:54:47;;;;;;;12.52;11.32;;;;;;;;;;517869;28;1351;-68
2023/02/13 00:55:03;;;;;;;12.43;11.23;;;;;;;;;;514879;28;1271;-68
2023/02/13 00:55:18;;;;;;;13.25;11.93;;;;;;;;;;515830;28;1242;-69
2023/02/13 00:55:34;;;;;;;13.27;11.93;;;;;;;;;;515551;28;1290;-68
2023/02/13 00:55:50;;;;;;;13.00;11.70;;;;;;;;;;516777;28;1403;-68
2023/02/13 00:56:06;;;;;;;13.13;11.82;;;;;;;;;;518154;28;1367;-68
2023/02/13 00:56:22;;;;;;;13.10;11.77;;;;;;;;;;517029;28;1616;-69
2023/02/13 00:56:37;;;;;;;13.37;12.00;;;;;;;;;;516531;28;1228;-68
2023/02/13 00:56:52;;;;;;;13.48;12.07;;;;;;;;;;517534;28;1273;-68
2023/02/13 00:57:07;;;;;;;13.50;12.10;;;;;;;;;;516961;28;1239;-67
2023/02/13 00:57:23;;;;;;;13.03;11.77;;;;;;;;;;513807;28;1447;-68
2023/02/13 00:57:38;;;;;;;12.73;11.45;;;;;;;;;;513712;28;1197;-67
2023/02/13 00:57:53;;;;;;;12.70;11.40;;;;;;;;;;517644;28;1418;-68
2023/02/13 00:58:09;;;;;;;12.27;11.07;;;;;;;;;;517260;28;1489;-67
2023/02/13 00:58:25;;;;;;;12.95;11.65;;;;;;;;;;517573;28;1403;-68
2023/02/13 00:58:40;;;;;;;13.68;12.27;;;;;;;;;;519694;28;1154;-68
2023/02/13 00:58:55;;;;;;;12.97;11.67;;;;;;;;;;521638;28;1188;-68
2023/02/13 00:59:10;;;;;;;13.00;11.70;;;;;;;;;;519672;28;1121;-68
2023/02/13 00:59:26;;;;;;;13.38;12.07;;;;;;;;;;522448;28;1546;-68
2023/02/13 00:59:41;;;;;;;13.20;11.90;;;;;;;;;;521131;28;1194;-69
2023/02/13 00:59:57;;;;;;;12.73;11.43;;;;;;;;;;520113;28;1218;-68
2023/02/13 01:00:13;;;;;;;12.70;11.50;;;;;;;;;;516994;28;1342;-68
2023/02/13 01:00:28;;;;;;;13.30;12.00;;;;;;;;;;515747;28;1230;-68
2023/02/13 01:00:46;;;;;;;12.90;11.60;;;;;;;;;;519577;28;1406;-68
2023/02/13 01:01:01;;;;;;;12.98;11.68;;;;;;;;;;518996;28;1263;-68
2023/02/13 01:01:16;;;;;;;13.83;12.43;;;;;;;;;;519416;28;1287;-68
2023/02/13 01:01:32;;;;;;;14.17;12.70;;;;;;;;;;519887;28;1569;-69
2023/02/13 01:01:47;;;;;;;14.00;12.60;;;;;;;;;;517815;28;1304;-69
2023/02/13 01:02:03;;;;;;;13.73;12.33;;;;;;;;;;519386;28;1258;-68
2023/02/13 01:02:18;;;;;;;13.70;12.30;;;;;;;;;;519696;28;1098;-68
2023/02/13 01:02:35;;;;;;;13.60;12.20;;;;;;;;;;519843;28;1118;-68
2023/02/13 01:02:50;;;;;;;13.52;12.20;;;;;;;;;;520364;28;1610;-68
2023/02/13 01:03:05;;;;;;;13.60;12.20;;;;;;;;;;518129;28;1293;-67
2023/02/13 01:03:22;;;;;;;13.48;12.07;;;;;;;;;;520339;28;1463;-68
2023/02/13 01:03:37;;;;;;;13.63;12.23;;;;;;;;;;519963;28;1319;-68
2023/02/13 01:03:52;;;;;;;20.90;15.43;;;;;;;;;;522239;28;1043;-68
2023/02/13 01:04:08;;;;;;;26.73;17.98;;;;;;;;;;520023;28;1350;-68
2023/02/13 01:04:23;;;;;;;20.13;15.10;;;;;;;;;;519888;28;1243;-69
2023/02/13 01:04:38;;;;;;;17.03;14.00;;;;;;;;;;520181;28;1255;-68
2023/02/13 01:04:54;;;;;;;18.17;14.60;;;;;;;;;;521767;28;1318;-68
2023/02/13 01:05:09;;;;;;;16.50;13.53;;;;;;;;;;520810;28;1210;-68
2023/02/13 01:05:26;;;;;;;14.80;13.20;;;;;;;;;;518463;28;1252;-69
2023/02/13 01:05:43;;;;;;;14.63;13.13;;;;;;;;;;515164;28;1242;-68
2023/02/13 01:05:58;;;;;;;14.10;12.57;;;;;;;;;;514703;28;1237;-68
2023/02/13 01:06:13;;;;;;;14.57;12.93;;;;;;;;;;515572;28;1176;-68
2023/02/13 01:06:29;;;;;;;15.00;13.40;;;;;;;;;;513548;28;1482;-69
2023/02/13 01:06:44;;;;;;;14.70;13.10;;;;;;;;;;515494;28;1272;-68
2023/02/13 01:06:59;;;;;;;14.40;12.87;;;;;;;;;;515653;28;1212;-68
2023/02/13 01:07:15;;;;;;;14.38;12.75;;;;;;;;;;516518;28;1230;-69
2023/02/13 01:07:30;;;;;;;14.50;12.87;;;;;;;;;;519668;28;1195;-69
2023/02/13 01:07:45;;;;;;;14.53;13.00;;;;;;;;;;518342;28;1105;-68
2023/02/13 01:08:01;;;;;;;14.75;13.25;;;;;;;;;;520213;28;1237;-69
2023/02/13 01:08:17;;;;;;;14.60;13.10;;;;;;;;;;521158;28;1320;-68
2023/02/13 01:08:33;;;;;;;13.60;12.27;;;;;;;;;;522175;28;1408;-68
2023/02/13 01:08:48;;;;;;;13.30;12.00;;;;;;;;;;523387;28;1276;-68
2023/02/13 01:09:03;;;;;;;13.30;11.90;;;;;;;;;;517724;28;1211;-68
2023/02/13 01:09:19;;;;;;;13.77;12.37;;;;;;;;;;518207;28;1208;-68
2023/02/13 01:09:34;;;;;;;13.90;12.50;;;;;;;;;;516031;28;1244;-68
2023/02/13 01:09:49;;;;;;;13.65;12.25;;;;;;;;;;519795;28;1156;-68
2023/02/13 01:10:05;;;;;;;14.30;12.80;;;;;;;;;;515837;28;1539;-68
2023/02/13 01:10:21;;;;;;;14.07;12.57;;;;;;;;;;516787;28;1255;-69
2023/02/13 01:10:38;;;;;;;13.23;11.93;;;;;;;;;;521413;28;1234;-68
2023/02/13 01:10:54;;;;;;;13.60;12.20;;;;;;;;;;517816;28;1227;-70
2023/02/13 01:11:09;;;;;;;13.88;12.48;;;;;;;;;;521730;28;1308;-68
2023/02/13 01:11:24;;;;;;;13.70;12.33;;;;;;;;;;519333;28;1174;-68
2023/02/13 01:11:39;;;;;;;13.40;12.10;;;;;;;;;;518402;28;1407;-68
2023/02/13 01:11:55;;;;;;;13.43;12.13;;;;;;;;;;520049;28;1148;-68
2023/02/13 01:12:10;;;;;;;13.47;12.13;;;;;;;;;;516965;28;1922;-69
2023/02/13 01:12:25;;;;;;;13.05;11.75;;;;;;;;;;517444;28;1207;-68
2023/02/13 01:12:41;;;;;;;13.57;12.17;;;;;;;;;;517745;28;1266;-68
2023/02/13 01:12:56;;;;;;;14.03;12.60;;;;;;;;;;520175;28;1161;-69
2023/02/13 01:13:13;;;;;;;14.02;12.63;;;;;;;;;;518811;28;1243;-69
2023/02/13 01:13:28;;;;;;;13.68;12.30;;;;;;;;;;514232;28;1248;-69
2023/02/13 01:13:44;;;;;;;13.63;12.33;;;;;;;;;;515091;28;1220;-69
2023/02/13 01:13:59;;;;;;;13.77;12.48;;;;;;;;;;516029;28;1264;-68
2023/02/13 01:14:15;;;;;;;14.10;12.70;;;;;;;;;;518420;28;1288;-69
2023/02/13 01:14:30;;;;;;;14.25;12.75;;;;;;;;;;516255;28;1415;-68
2023/02/13 01:14:45;;;;;;;13.63;12.30;;;;;;;;;;516342;28;1266;-69
2023/02/13 01:15:02;;;;;;;13.50;12.20;;;;;;;;;;516453;28;1299;-68
2023/02/13 01:15:18;;;;;;;13.82;12.43;;;;;;;;;;516790;28;1008;-68
2023/02/13 01:15:34;;;;;;;13.75;12.35;;;;;;;;;;517586;28;1412;-68
2023/02/13 01:15:50;;;;;;;13.70;12.30;;;;;;;;;;517487;28;1317;-68
2023/02/13 01:16:05;;;;;;;13.93;12.52;;;;;;;;;;515729;28;1289;-69
2023/02/13 01:16:21;;;;;;;13.50;12.20;;;;;;;;;;518382;28;1014;-68
2023/02/13 01:16:36;;;;;;;13.40;12.10;;;;;;;;;;518441;28;1176;-68
2023/02/13 01:16:51;;;;;;;13.63;12.23;;;;;;;;;;517797;28;1273;-68
2023/02/13 01:17:07;;;;;;;13.37;11.97;;;;;;;;;;515771;28;1312;-68
2023/02/13 01:17:22;;;;;;;13.50;12.10;;;;;;;;;;517382;28;1358;-68
2023/02/13 01:17:40;;;;;;;13.50;12.20;;;;;;;;;;517276;28;1293;-68
2023/02/13 01:17:56;;;;;;;13.32;12.02;;;;;;;;;;516851;28;1394;-68
2023/02/13 01:18:13;;;;;;;13.77;12.45;;;;;;;;;;516609;28;1216;-68
2023/02/13 01:18:29;;;;;;;14.13;12.73;;;;;;;;;;516741;28;1278;-68
2023/02/13 01:18:44;;;;;;;13.70;12.30;;;;;;;;;;520443;28;1328;-68
2023/02/13 01:18:59;;;;;;;13.57;12.17;;;;;;;;;;520399;28;1318;-68
2023/02/13 01:19:15;;;;;;;14.07;12.67;;;;;;;;;;521298;28;1047;-68
2023/02/13 01:19:30;;;;;;;13.88;12.48;;;;;;;;;;519402;28;1454;-68
2023/02/13 01:19:45;;;;;;;13.70;12.40;;;;;;;;;;518300;28;1192;-68
2023/02/13 01:20:01;;;;;;;13.73;12.33;;;;;;;;;;516164;28;1122;-68
2023/02/13 01:20:16;;;;;;;13.80;12.40;;;;;;;;;;514801;28;1496;-68
2023/02/13 01:20:31;;;;;;;13.90;12.50;;;;;;;;;;516112;28;1114;-69
2023/02/13 01:21:05;;;;;;;13.80;12.40;;;;;;;;;;517610;28;1418;-68
2023/02/13 01:21:22;;;;;;;13.88;12.48;;;;;;;;;;516229;28;1286;-68
2023/02/13 01:21:38;;;;;;;14.15;12.75;;;;;;;;;;519018;28;1094;-68
2023/02/13 01:21:53;;;;;;;14.25;12.85;;;;;;;;;;517635;28;1164;-69
2023/02/13 01:22:08;;;;;;;13.97;12.57;;;;;;;;;;518166;28;1381;-68
2023/02/13 01:22:24;;;;;;;13.70;12.30;;;;;;;;;;519393;28;1261;-68
2023/02/13 01:22:40;;;;;;;13.90;12.50;;;;;;;;;;519365;28;1301;-68
2023/02/13 01:22:56;;;;;;;13.90;12.50;;;;;;;;;;519547;28;1541;-68
2023/02/13 01:23:11;;;;;;;14.00;12.60;;;;;;;;;;518394;28;1298;-68
2023/02/13 01:23:35;;;;;;;14.27;12.88;;;;;;;;;;517499;28;1333;-69
2023/02/13 01:23:50;;;;;;;14.68;13.18;;;;;;;;;;518170;28;1631;-68
2023/02/13 01:24:06;;;;;;;14.73;13.23;;;;;;;;;;515732;28;1446;-68
2023/02/13 01:24:21;;;;;;;14.43;13.00;;;;;;;;;;517674;28;1234;-68
2023/02/13 01:24:36;;;;;;;14.17;12.67;;;;;;;;;;520455;28;1312;-68
2023/02/13 01:24:52;;;;;;;14.40;12.88;;;;;;;;;;521455;28;1133;-68
2023/02/13 01:25:07;;;;;;;14.43;12.93;;;;;;;;;;519385;28;1203;-68
2023/02/13 01:25:23;;;;;;;13.97;12.57;;;;;;;;;;523001;28;1262;-69
2023/02/13 01:25:42;;;;;;;14.20;12.80;;;;;;;;;;521377;28;1152;-68
2023/02/13 01:25:57;;;;;;;14.55;13.10;;;;;;;;;;520576;28;1220;-68
2023/02/13 01:26:19;;;;;;;14.57;13.05;;;;;;;;;;517446;28;1180;-68
2023/02/13 01:26:35;;;;;;;14.45;13.00;;;;;;;;;;518486;28;1380;-68
2023/02/13 01:26:50;;;;;;;14.60;13.10;;;;;;;;;;519462;28;1446;-68
2023/02/13 01:27:06;;;;;;;14.60;13.10;;;;;;;;;;520297;28;1230;-68
2023/02/13 01:27:21;;;;;;;14.70;13.20;;;;;;;;;;518565;28;1432;-68
2023/02/13 01:27:37;;;;;;;13.80;12.40;;;;;;;;;;518647;28;1129;-68
2023/02/13 01:27:52;;;;;;;13.68;12.27;;;;;;;;;;521183;28;1662;-68
2023/02/13 01:28:08;;;;;;;14.25;12.85;;;;;;;;;;521318;28;1553;-68
2023/02/13 01:28:23;;;;;;;14.53;13.10;;;;;;;;;;521495;28;1293;-68
2023/02/13 01:28:38;;;;;;;14.38;12.90;;;;;;;;;;518124;28;1263;-68
2023/02/13 01:28:54;;;;;;;14.03;12.57;;;;;;;;;;519410;28;1226;-68
2023/02/13 01:29:12;;;;;;;13.93;12.53;;;;;;;;;;517482;28;1227;-68
2023/02/13 01:29:28;;;;;;;14.60;13.13;;;;;;;;;;520545;28;1266;-68
2023/02/13 01:29:44;;;;;;;14.90;13.40;;;;;;;;;;518147;28;1389;-67
2023/02/13 01:29:59;;;;;;;14.70;13.20;;;;;;;;;;519582;28;1243;-68
2023/02/13 01:30:17;;;;;;;14.47;13.00;;;;;;;;;;519452;28;1218;-67
2023/02/13 01:30:32;;;;;;;14.80;13.30;;;;;;;;;;520917;28;1325;-67
2023/02/13 01:30:55;;;;;;;15.33;13.73;;;;;;;;;;520411;28;1261;-68
2023/02/13 01:31:10;;;;;;;15.05;13.48;;;;;;;;;;520999;28;1292;-67
2023/02/13 01:31:26;;;;;;;14.68;13.18;;;;;;;;;;520591;28;1087;-67
2023/02/13 01:31:41;;;;;;;14.60;13.10;;;;;;;;;;519863;28;1478;-68
2023/02/13 01:31:57;;;;;;;14.52;13.02;;;;;;;;;;517373;28;1241;-68
2023/02/13 01:32:12;;;;;;;14.43;13.00;;;;;;;;;;514387;28;1982;-68
2023/02/13 01:32:27;;;;;;;14.48;13.05;;;;;;;;;;516424;28;995;-68
2023/02/13 01:32:44;;;;;;;15.33;13.73;;;;;;;;;;517042;28;1143;-68
2023/02/13 01:32:59;;;;;;;15.57;13.98;;;;;;;;;;515906;28;1532;-68
2023/02/13 01:33:15;;;;;;;15.43;13.87;;;;;;;;;;516938;28;1286;-67
2023/02/13 01:33:30;;;;;;;15.17;13.67;;;;;;;;;;516394;28;1271;-68
2023/02/13 01:33:45;;;;;;;15.10;13.60;;;;;;;;;;518368;28;1251;-68
2023/02/13 01:34:01;;;;;;;15.37;13.77;;;;;;;;;;519728;28;1351;-67
2023/02/13 01:34:16;;;;;;;15.37;13.77;;;;;;;;;;521296;28;1391;-67
2023/02/13 01:34:32;;;;;;;15.10;13.53;;;;;;;;;;521592;28;1349;-67
2023/02/13 01:34:47;;;;;;;14.68;13.18;;;;;;;;;;517914;28;1313;-67